Besuchen Sie unsere anderen Wetter Stationen:

Template documentation
and downloads

And another site



Select another period ( hide this area )

Einheiten Zeitraum Custom range Directly to
metrisch Englisch Beide
Tägliche Wöchentliche Monatliche Jährlich
use both date-selectors for a custom range
previous Tag
With this date

WeatherUnderground graphs for this period ( click here ) Loading the graph can take up to a minute!



Warning: Division by zero in /is/htdocs/wp10906056_0YHW7Q9XB7/www/weather28/wuhistory/WU-History4.php on line 817
Tägliche Zusammenfassung für Samstag 29 Februar 2020
Zeit Temp. ( °C ) Dew pt. ( °C ) Wind ( km/h ) von Windböen ( km/h ) Luftdruck ( hPa ) Humid.( % ) Rainrate ( cm ) Solar ( W/m2 )
Hoch3,9 0,2 24,0 Süden ( 328/388 ) 17,0 1010,8 78 0,25 0
Durchchnittswerte3,4 -0,8 17,6 Süden #19/22 10,4 1009,5 74 0,50 NAN #0/22
Wenig3,1 -1,2 10,0   7,0 1008,5 72 -  
Tägliche Tabular details for Samstag 29 Februar 2020
Zeit Temp. ( °C ) Dew pt. ( °C ) Wind ( km/h ) von Windböen ( km/h ) Luftdruck ( hPa ) Humid.( % ) Rainrate ( cm ) Solar ( W/m2 )
00:04 3,1 -1,2 13,0 Süden 10,0 1010,8 74 - -
00:09 3,2 -1,2 15,0 Süden 9,0 1010,5 73 - -
00:14 3,3 -1,1 19,0 Süden 13,0 1010,5 73 - -
00:19 3,3 -0,9 15,0 Süden 8,0 1010,2 74 - -
00:24 3,1 -1,1 16,0 Süden 8,0 1010,2 74 - -
00:29 3,1 -1,1 17,0 Süden 12,0 1009,8 74 - -
00:34 3,3 -1,1 17,0 Süden 9,0 1009,8 73 - -
00:39 3,3 -1,2 15,0 Süden 10,0 1009,8 72 - -
00:44 3,3 -1,2 10,0 Süden 7,0 1009,8 72 - -
00:49 3,4 -1,2 15,0 Süden 9,0 1009,5 72 - -
00:54 3,4 -1,0 19,0 Süden 9,0 1009,5 73 0,25 -
00:59 3,4 -0,8 19,0 Süden 9,0 1009,5 74 0,25 -
01:04 3,3 -0,7 19,0 Süden 11,0 1009,1 75 0,25 -
01:09 3,3 -0,7 21,0 Süden 11,0 1009,1 75 0,25 -
01:14 3,4 -0,8 17,0 Süden 11,0 1009,1 74 0,25 -
01:19 3,6 -0,7 18,0 Süden 11,0 1009,1 74 0,25 -
01:24 3,7 -0,6 24,0 Süden 13,0 1008,8 74 0,25 -
01:29 3,8 -0,4 24,0 SSW 14,0 1008,8 74 0,25 -
01:34 3,9 -0,3 24,0 Süden 17,0 1008,8 74 0,25 -
01:39 3,9 0,1 17,0 SSW 11,0 1008,8 76 0,25 -
01:44 3,8 0,2 19,0 SSW 10,0 1008,5 78 0,25 -
01:49 3,6 0,1 15,0 Süden 7,0 1008,5 78 0,25 -
Tägliche Zusammenfassung für Samstag 29 Februar 2020
Zeit Temp. ( °C ) Dew pt. ( °C ) Wind ( km/h ) von Windböen ( km/h ) Luftdruck ( hPa ) Humid.( % ) Rainrate ( cm ) Solar ( W/m2 )
Hoch3,9 0,2 24,0 Süden ( 328/388 ) 17,0 1010,8 78 0,25 0
Durchchnittswerte3,4 -0,8 17,6 Süden #19/22 10,4 1009,5 74 0,50 NAN #0/22
Wenig3,1 -1,2 10,0   7,0 1008,5 72 -  
Tägliche Tabular details for Samstag 29 Februar 2020
Zeit Temp. ( °C ) Dew pt. ( °C ) Wind ( km/h ) von Windböen ( km/h ) Luftdruck ( hPa ) Humid.( % ) Rainrate ( cm ) Solar ( W/m2 )
00:04 3,1 -1,2 13,0 Süden 10,0 1010,8 74 - -
00:09 3,2 -1,2 15,0 Süden 9,0 1010,5 73 - -
00:14 3,3 -1,1 19,0 Süden 13,0 1010,5 73 - -
00:19 3,3 -0,9 15,0 Süden 8,0 1010,2 74 - -
00:24 3,1 -1,1 16,0 Süden 8,0 1010,2 74 - -
00:29 3,1 -1,1 17,0 Süden 12,0 1009,8 74 - -
00:34 3,3 -1,1 17,0 Süden 9,0 1009,8 73 - -
00:39 3,3 -1,2 15,0 Süden 10,0 1009,8 72 - -
00:44 3,3 -1,2 10,0 Süden 7,0 1009,8 72 - -
00:49 3,4 -1,2 15,0 Süden 9,0 1009,5 72 - -
00:54 3,4 -1,0 19,0 Süden 9,0 1009,5 73 0,25 -
00:59 3,4 -0,8 19,0 Süden 9,0 1009,5 74 0,25 -
01:04 3,3 -0,7 19,0 Süden 11,0 1009,1 75 0,25 -
01:09 3,3 -0,7 21,0 Süden 11,0 1009,1 75 0,25 -
01:14 3,4 -0,8 17,0 Süden 11,0 1009,1 74 0,25 -
01:19 3,6 -0,7 18,0 Süden 11,0 1009,1 74 0,25 -
01:24 3,7 -0,6 24,0 Süden 13,0 1008,8 74 0,25 -
01:29 3,8 -0,4 24,0 SSW 14,0 1008,8 74 0,25 -
01:34 3,9 -0,3 24,0 Süden 17,0 1008,8 74 0,25 -
01:39 3,9 0,1 17,0 SSW 11,0 1008,8 76 0,25 -
01:44 3,8 0,2 19,0 SSW 10,0 1008,5 78 0,25 -
01:49 3,6 0,1 15,0 Süden 7,0 1008,5 78 0,25 -

Download your copy of this data-set  here

Our weather-data as stored at Weather Underground. Script entwickelt von Jim McMurry. Angepasst für das Template von Leuven-Template.eu

Sie finden unser Wetter-Infos auch auf:

netzwerkwettercom

European Weather Network

WeatherCloud

Weather Underground

AWEKAS

Citizen Weather Observer Program (CWOP)

HAMweather, WeatherForYou, PWS Weather

Von uns verwendete Ausrüstung:

Wetterstation
Davis VP2

Davis VP2